sensor_id;sensor_type;location;lat;lon;timestamp;temperature;humidity
20714;DHT22;10518;50.742;4.226;2022-09-09T00:02:04;16.10;99.90
20714;DHT22;10518;50.742;4.226;2022-09-09T00:04:37;16.00;99.90
20714;DHT22;10518;50.742;4.226;2022-09-09T00:09:48;16.30;99.90
20714;DHT22;10518;50.742;4.226;2022-09-09T00:21:07;16.40;99.90
20714;DHT22;10518;50.742;4.226;2022-09-09T00:23:42;16.30;99.90
20714;DHT22;10518;50.742;4.226;2022-09-09T00:31:30;16.70;99.90
20714;DHT22;10518;50.742;4.226;2022-09-09T00:34:21;16.70;99.90
20714;DHT22;10518;50.742;4.226;2022-09-09T00:36:50;16.60;99.90
20714;DHT22;10518;50.742;4.226;2022-09-09T00:44:52;16.30;99.90
20714;DHT22;10518;50.742;4.226;2022-09-09T00:55:46;16.20;99.90
20714;DHT22;10518;50.742;4.226;2022-09-09T00:58:13;16.20;99.90
20714;DHT22;10518;50.742;4.226;2022-09-09T01:00:59;16.10;99.90
20714;DHT22;10518;50.742;4.226;2022-09-09T01:03:38;16.10;99.90
20714;DHT22;10518;50.742;4.226;2022-09-09T01:09:10;16.00;99.90
20714;DHT22;10518;50.742;4.226;2022-09-09T01:12:15;16.10;99.90
20714;DHT22;10518;50.742;4.226;2022-09-09T01:15:18;16.20;99.90
20714;DHT22;10518;50.742;4.226;2022-09-09T01:20:14;16.10;99.90
20714;DHT22;10518;50.742;4.226;2022-09-09T01:29:11;16.20;99.90
20714;DHT22;10518;50.742;4.226;2022-09-09T01:31:39;16.00;99.90
20714;DHT22;10518;50.742;4.226;2022-09-09T01:34:14;16.00;99.90
20714;DHT22;10518;50.742;4.226;2022-09-09T01:39:18;16.00;99.90
20714;DHT22;10518;50.742;4.226;2022-09-09T01:41:44;16.20;99.90
20714;DHT22;10518;50.742;4.226;2022-09-09T01:44:10;16.20;99.90
20714;DHT22;10518;50.742;4.226;2022-09-09T01:46:36;16.30;99.90
20714;DHT22;10518;50.742;4.226;2022-09-09T01:49:04;16.30;99.90
20714;DHT22;10518;50.742;4.226;2022-09-09T01:51:31;16.30;99.90
20714;DHT22;10518;50.742;4.226;2022-09-09T01:53:56;16.20;99.90
20714;DHT22;10518;50.742;4.226;2022-09-09T01:56:28;16.00;99.90
20714;DHT22;10518;50.742;4.226;2022-09-09T02:02:13;16.30;99.90
20714;DHT22;10518;50.742;4.226;2022-09-09T02:04:54;16.30;99.90
20714;DHT22;10518;50.742;4.226;2022-09-09T02:07:47;16.20;99.90
20714;DHT22;10518;50.742;4.226;2022-09-09T02:12:48;16.00;99.90
20714;DHT22;10518;50.742;4.226;2022-09-09T02:15:23;16.10;99.90
20714;DHT22;10518;50.742;4.226;2022-09-09T02:17:52;16.20;99.90
20714;DHT22;10518;50.742;4.226;2022-09-09T02:20:19;16.20;99.90
20714;DHT22;10518;50.742;4.226;2022-09-09T02:22:47;16.50;99.90
20714;DHT22;10518;50.742;4.226;2022-09-09T02:25:17;16.30;99.90
20714;DHT22;10518;50.742;4.226;2022-09-09T02:27:45;16.20;99.90
20714;DHT22;10518;50.742;4.226;2022-09-09T02:30:13;16.10;99.90
20714;DHT22;10518;50.742;4.226;2022-09-09T02:32:39;16.20;99.90
20714;DHT22;10518;50.742;4.226;2022-09-09T02:35:11;16.20;99.90
20714;DHT22;10518;50.742;4.226;2022-09-09T02:37:42;16.30;99.90
20714;DHT22;10518;50.742;4.226;2022-09-09T02:40:10;16.30;99.90
20714;DHT22;10518;50.742;4.226;2022-09-09T02:42:40;16.20;99.90
20714;DHT22;10518;50.742;4.226;2022-09-09T02:45:08;16.10;99.90
20714;DHT22;10518;50.742;4.226;2022-09-09T02:47:39;16.20;99.90
20714;DHT22;10518;50.742;4.226;2022-09-09T02:56:05;16.20;99.90
20714;DHT22;10518;50.742;4.226;2022-09-09T02:58:23;16.10;99.90
20714;DHT22;10518;50.742;4.226;2022-09-09T03:00:50;16.10;99.90
20714;DHT22;10518;50.742;4.226;2022-09-09T03:03:18;16.00;99.90
20714;DHT22;10518;50.742;4.226;2022-09-09T03:05:44;16.20;99.90
20714;DHT22;10518;50.742;4.226;2022-09-09T03:08:10;16.10;99.90
20714;DHT22;10518;50.742;4.226;2022-09-09T03:10:36;16.10;99.90
20714;DHT22;10518;50.742;4.226;2022-09-09T03:13:02;16.10;99.90
20714;DHT22;10518;50.742;4.226;2022-09-09T03:15:29;16.10;99.90
20714;DHT22;10518;50.742;4.226;2022-09-09T03:17:57;16.10;99.90
20714;DHT22;10518;50.742;4.226;2022-09-09T03:20:24;16.10;99.90
20714;DHT22;10518;50.742;4.226;2022-09-09T03:22:52;16.20;99.90
20714;DHT22;10518;50.742;4.226;2022-09-09T03:25:17;16.20;99.90
20714;DHT22;10518;50.742;4.226;2022-09-09T03:27:43;16.20;99.90
20714;DHT22;10518;50.742;4.226;2022-09-09T03:30:09;16.20;99.90
20714;DHT22;10518;50.742;4.226;2022-09-09T03:32:35;16.20;99.90
20714;DHT22;10518;50.742;4.226;2022-09-09T03:35:00;16.00;99.90
20714;DHT22;10518;50.742;4.226;2022-09-09T03:37:26;16.00;99.90
20714;DHT22;10518;50.742;4.226;2022-09-09T03:39:51;16.10;99.90
20714;DHT22;10518;50.742;4.226;2022-09-09T03:42:19;16.20;99.90
20714;DHT22;10518;50.742;4.226;2022-09-09T03:44:48;16.10;99.90
20714;DHT22;10518;50.742;4.226;2022-09-09T03:47:16;16.20;99.90
20714;DHT22;10518;50.742;4.226;2022-09-09T03:49:42;16.20;99.90
20714;DHT22;10518;50.742;4.226;2022-09-09T03:52:08;16.10;99.90
20714;DHT22;10518;50.742;4.226;2022-09-09T03:54:34;16.00;99.90
20714;DHT22;10518;50.742;4.226;2022-09-09T03:57:00;16.10;99.90
20714;DHT22;10518;50.742;4.226;2022-09-09T03:59:25;16.30;99.90
20714;DHT22;10518;50.742;4.226;2022-09-09T04:01:51;16.30;99.90
20714;DHT22;10518;50.742;4.226;2022-09-09T04:04:17;16.30;99.90
20714;DHT22;10518;50.742;4.226;2022-09-09T04:06:43;16.40;99.90
20714;DHT22;10518;50.742;4.226;2022-09-09T04:09:08;16.60;99.90
20714;DHT22;10518;50.742;4.226;2022-09-09T04:11:34;16.70;99.90
20714;DHT22;10518;50.742;4.226;2022-09-09T04:13:59;16.50;99.90
20714;DHT22;10518;50.742;4.226;2022-09-09T04:16:25;16.30;99.90
20714;DHT22;10518;50.742;4.226;2022-09-09T04:18:51;16.30;99.90
20714;DHT22;10518;50.742;4.226;2022-09-09T04:21:18;16.30;99.90
20714;DHT22;10518;50.742;4.226;2022-09-09T04:23:43;16.10;99.90
20714;DHT22;10518;50.742;4.226;2022-09-09T04:26:09;16.10;99.90
20714;DHT22;10518;50.742;4.226;2022-09-09T04:28:36;16.10;99.90
20714;DHT22;10518;50.742;4.226;2022-09-09T04:31:19;16.20;99.90
20714;DHT22;10518;50.742;4.226;2022-09-09T04:33:46;16.00;99.90
20714;DHT22;10518;50.742;4.226;2022-09-09T04:36:12;16.10;99.90
20714;DHT22;10518;50.742;4.226;2022-09-09T04:38:38;16.20;99.90
20714;DHT22;10518;50.742;4.226;2022-09-09T04:41:05;16.30;99.90
20714;DHT22;10518;50.742;4.226;2022-09-09T04:43:31;16.00;99.90
20714;DHT22;10518;50.742;4.226;2022-09-09T04:45:56;15.80;99.90
20714;DHT22;10518;50.742;4.226;2022-09-09T04:48:22;16.30;99.90
20714;DHT22;10518;50.742;4.226;2022-09-09T04:51:14;16.00;99.90
20714;DHT22;10518;50.742;4.226;2022-09-09T04:53:40;16.00;99.90
20714;DHT22;10518;50.742;4.226;2022-09-09T04:56:08;16.10;99.90
20714;DHT22;10518;50.742;4.226;2022-09-09T04:58:36;16.20;99.90
20714;DHT22;10518;50.742;4.226;2022-09-09T05:01:22;16.50;99.90
20714;DHT22;10518;50.742;4.226;2022-09-09T05:03:49;16.40;99.90
20714;DHT22;10518;50.742;4.226;2022-09-09T05:06:17;16.10;99.90
20714;DHT22;10518;50.742;4.226;2022-09-09T05:08:43;16.20;99.90
20714;DHT22;10518;50.742;4.226;2022-09-09T05:11:23;16.50;99.90
20714;DHT22;10518;50.742;4.226;2022-09-09T05:13:50;16.60;99.90
20714;DHT22;10518;50.742;4.226;2022-09-09T05:16:16;16.80;99.90
20714;DHT22;10518;50.742;4.226;2022-09-09T05:18:43;16.50;99.90
20714;DHT22;10518;50.742;4.226;2022-09-09T05:21:10;16.40;99.90
20714;DHT22;10518;50.742;4.226;2022-09-09T05:23:36;16.70;99.90
20714;DHT22;10518;50.742;4.226;2022-09-09T05:26:03;16.80;99.90
20714;DHT22;10518;50.742;4.226;2022-09-09T05:28:29;16.70;99.90
20714;DHT22;10518;50.742;4.226;2022-09-09T05:30:59;16.50;99.90
20714;DHT22;10518;50.742;4.226;2022-09-09T05:33:27;16.70;99.90
20714;DHT22;10518;50.742;4.226;2022-09-09T05:35:57;16.50;99.90
20714;DHT22;10518;50.742;4.226;2022-09-09T05:38:23;16.50;99.90
20714;DHT22;10518;50.742;4.226;2022-09-09T05:40:51;16.40;99.90
20714;DHT22;10518;50.742;4.226;2022-09-09T05:43:18;16.50;99.90
20714;DHT22;10518;50.742;4.226;2022-09-09T05:45:45;16.50;99.90
20714;DHT22;10518;50.742;4.226;2022-09-09T05:48:13;16.60;99.90
20714;DHT22;10518;50.742;4.226;2022-09-09T05:50:40;16.70;99.90
20714;DHT22;10518;50.742;4.226;2022-09-09T05:53:06;16.80;99.90
20714;DHT22;10518;50.742;4.226;2022-09-09T05:55:31;16.70;99.90
20714;DHT22;10518;50.742;4.226;2022-09-09T05:57:57;16.60;99.90
20714;DHT22;10518;50.742;4.226;2022-09-09T06:00:22;16.70;99.90
20714;DHT22;10518;50.742;4.226;2022-09-09T06:02:52;16.90;99.90
20714;DHT22;10518;50.742;4.226;2022-09-09T06:05:18;17.00;99.90
20714;DHT22;10518;50.742;4.226;2022-09-09T06:07:43;17.30;99.90
20714;DHT22;10518;50.742;4.226;2022-09-09T06:10:13;17.50;99.90
20714;DHT22;10518;50.742;4.226;2022-09-09T06:12:41;17.70;99.90
20714;DHT22;10518;50.742;4.226;2022-09-09T06:15:07;17.40;99.90
20714;DHT22;10518;50.742;4.226;2022-09-09T06:17:34;17.30;99.90
20714;DHT22;10518;50.742;4.226;2022-09-09T06:19:59;17.50;99.90
20714;DHT22;10518;50.742;4.226;2022-09-09T06:22:25;17.60;99.90
20714;DHT22;10518;50.742;4.226;2022-09-09T06:24:51;17.40;99.90
20714;DHT22;10518;50.742;4.226;2022-09-09T06:27:16;17.60;99.90
20714;DHT22;10518;50.742;4.226;2022-09-09T06:29:42;17.70;99.90
20714;DHT22;10518;50.742;4.226;2022-09-09T06:32:07;17.60;99.90
20714;DHT22;10518;50.742;4.226;2022-09-09T06:34:34;17.60;99.90
20714;DHT22;10518;50.742;4.226;2022-09-09T06:37:01;17.60;99.90
20714;DHT22;10518;50.742;4.226;2022-09-09T06:39:26;17.30;99.90
20714;DHT22;10518;50.742;4.226;2022-09-09T06:41:52;17.40;99.90
20714;DHT22;10518;50.742;4.226;2022-09-09T06:44:18;17.50;99.90
20714;DHT22;10518;50.742;4.226;2022-09-09T06:46:44;17.60;99.90
20714;DHT22;10518;50.742;4.226;2022-09-09T06:49:13;17.70;99.90
20714;DHT22;10518;50.742;4.226;2022-09-09T06:51:39;18.00;99.90
20714;DHT22;10518;50.742;4.226;2022-09-09T06:54:12;18.10;99.90
20714;DHT22;10518;50.742;4.226;2022-09-09T06:56:39;18.00;99.90
20714;DHT22;10518;50.742;4.226;2022-09-09T06:59:07;17.80;99.90
20714;DHT22;10518;50.742;4.226;2022-09-09T07:01:36;17.90;99.90
20714;DHT22;10518;50.742;4.226;2022-09-09T07:04:03;18.00;99.90
20714;DHT22;10518;50.742;4.226;2022-09-09T07:06:32;17.80;99.90
20714;DHT22;10518;50.742;4.226;2022-09-09T07:08:59;17.80;99.90
20714;DHT22;10518;50.742;4.226;2022-09-09T07:11:28;17.60;99.90
20714;DHT22;10518;50.742;4.226;2022-09-09T07:13:56;17.90;99.90
20714;DHT22;10518;50.742;4.226;2022-09-09T07:16:22;17.60;99.90
20714;DHT22;10518;50.742;4.226;2022-09-09T07:18:53;17.50;99.90
20714;DHT22;10518;50.742;4.226;2022-09-09T07:21:20;17.70;99.90
20714;DHT22;10518;50.742;4.226;2022-09-09T07:23:46;17.80;99.90
20714;DHT22;10518;50.742;4.226;2022-09-09T07:26:21;17.60;99.90
20714;DHT22;10518;50.742;4.226;2022-09-09T07:28:47;17.70;99.90
20714;DHT22;10518;50.742;4.226;2022-09-09T07:31:15;17.50;99.90
20714;DHT22;10518;50.742;4.226;2022-09-09T07:33:42;17.60;99.90
20714;DHT22;10518;50.742;4.226;2022-09-09T07:36:16;17.60;99.90
20714;DHT22;10518;50.742;4.226;2022-09-09T07:38:45;17.20;99.90
20714;DHT22;10518;50.742;4.226;2022-09-09T07:41:14;17.10;99.90
20714;DHT22;10518;50.742;4.226;2022-09-09T07:43:42;17.30;99.90
20714;DHT22;10518;50.742;4.226;2022-09-09T07:46:09;17.40;99.90
20714;DHT22;10518;50.742;4.226;2022-09-09T07:48:35;17.70;99.90
20714;DHT22;10518;50.742;4.226;2022-09-09T07:53:34;17.80;99.90
20714;DHT22;10518;50.742;4.226;2022-09-09T07:56:09;17.50;99.90
20714;DHT22;10518;50.742;4.226;2022-09-09T07:58:37;17.40;99.90
20714;DHT22;10518;50.742;4.226;2022-09-09T08:01:11;17.50;99.90
20714;DHT22;10518;50.742;4.226;2022-09-09T08:03:37;18.00;99.90
20714;DHT22;10518;50.742;4.226;2022-09-09T08:06:06;18.00;99.90
20714;DHT22;10518;50.742;4.226;2022-09-09T08:08:33;18.40;99.90
20714;DHT22;10518;50.742;4.226;2022-09-09T08:11:13;18.70;99.90
20714;DHT22;10518;50.742;4.226;2022-09-09T08:13:41;18.60;99.90
20714;DHT22;10518;50.742;4.226;2022-09-09T08:16:13;18.70;99.90
20714;DHT22;10518;50.742;4.226;2022-09-09T08:18:39;19.00;99.90
20714;DHT22;10518;50.742;4.226;2022-09-09T08:21:09;19.30;99.90
20714;DHT22;10518;50.742;4.226;2022-09-09T08:23:41;19.50;99.90
20714;DHT22;10518;50.742;4.226;2022-09-09T08:26:18;19.40;99.90
20714;DHT22;10518;50.742;4.226;2022-09-09T08:28:48;18.80;99.90
20714;DHT22;10518;50.742;4.226;2022-09-09T08:31:33;18.60;99.90
20714;DHT22;10518;50.742;4.226;2022-09-09T08:34:00;18.60;99.90
20714;DHT22;10518;50.742;4.226;2022-09-09T08:36:28;18.70;99.90
20714;DHT22;10518;50.742;4.226;2022-09-09T08:38:56;18.70;99.90
20714;DHT22;10518;50.742;4.226;2022-09-09T08:49:23;18.70;99.90
20714;DHT22;10518;50.742;4.226;2022-09-09T08:51:53;18.70;99.90
20714;DHT22;10518;50.742;4.226;2022-09-09T08:54:20;18.50;99.90
20714;DHT22;10518;50.742;4.226;2022-09-09T08:56:47;18.60;99.90
20714;DHT22;10518;50.742;4.226;2022-09-09T08:59:17;18.30;99.90
20714;DHT22;10518;50.742;4.226;2022-09-09T09:07:16;18.20;99.90
20714;DHT22;10518;50.742;4.226;2022-09-09T09:10:04;18.00;99.90
20714;DHT22;10518;50.742;4.226;2022-09-09T09:12:40;17.80;99.90
20714;DHT22;10518;50.742;4.226;2022-09-09T09:15:27;18.00;99.90
20714;DHT22;10518;50.742;4.226;2022-09-09T09:17:55;17.90;99.90
20714;DHT22;10518;50.742;4.226;2022-09-09T09:20:38;17.90;99.90
20714;DHT22;10518;50.742;4.226;2022-09-09T09:23:19;18.10;99.90
20714;DHT22;10518;50.742;4.226;2022-09-09T09:25:46;17.80;99.90
20714;DHT22;10518;50.742;4.226;2022-09-09T09:28:13;17.70;99.90
20714;DHT22;10518;50.742;4.226;2022-09-09T09:31:06;17.80;99.90
20714;DHT22;10518;50.742;4.226;2022-09-09T09:33:44;18.00;99.90
20714;DHT22;10518;50.742;4.226;2022-09-09T09:36:12;18.10;99.90
20714;DHT22;10518;50.742;4.226;2022-09-09T09:38:52;18.20;99.90
20714;DHT22;10518;50.742;4.226;2022-09-09T09:41:32;18.20;99.90
20714;DHT22;10518;50.742;4.226;2022-09-09T09:43:59;18.00;99.90
20714;DHT22;10518;50.742;4.226;2022-09-09T09:46:26;18.00;99.90
20714;DHT22;10518;50.742;4.226;2022-09-09T09:49:03;18.10;99.90
20714;DHT22;10518;50.742;4.226;2022-09-09T09:51:31;18.10;99.90
20714;DHT22;10518;50.742;4.226;2022-09-09T09:56:38;18.40;99.90
20714;DHT22;10518;50.742;4.226;2022-09-09T09:59:05;18.30;99.90
20714;DHT22;10518;50.742;4.226;2022-09-09T10:01:44;18.20;99.90
20714;DHT22;10518;50.742;4.226;2022-09-09T10:04:20;18.30;99.90
20714;DHT22;10518;50.742;4.226;2022-09-09T10:06:47;18.20;99.90
20714;DHT22;10518;50.742;4.226;2022-09-09T10:14:49;18.50;99.90
20714;DHT22;10518;50.742;4.226;2022-09-09T10:17:25;18.40;99.90
20714;DHT22;10518;50.742;4.226;2022-09-09T10:22:49;18.60;99.90
20714;DHT22;10518;50.742;4.226;2022-09-09T10:33:31;19.20;99.90
20714;DHT22;10518;50.742;4.226;2022-09-09T10:38:40;18.70;99.90
20714;DHT22;10518;50.742;4.226;2022-09-09T10:43:59;19.10;99.90
20714;DHT22;10518;50.742;4.226;2022-09-09T10:49:56;18.90;99.90
20714;DHT22;10518;50.742;4.226;2022-09-09T10:54:56;19.30;99.90
20714;DHT22;10518;50.742;4.226;2022-09-09T10:57:33;19.30;99.90
20714;DHT22;10518;50.742;4.226;2022-09-09T11:00:05;19.60;99.90
20714;DHT22;10518;50.742;4.226;2022-09-09T11:02:33;19.50;99.90
20714;DHT22;10518;50.742;4.226;2022-09-09T11:07:59;19.50;99.90
20714;DHT22;10518;50.742;4.226;2022-09-09T11:13:14;19.70;99.90
20714;DHT22;10518;50.742;4.226;2022-09-09T11:15:46;19.70;99.90
20714;DHT22;10518;50.742;4.226;2022-09-09T11:18:19;20.00;99.90
20714;DHT22;10518;50.742;4.226;2022-09-09T11:20:50;20.00;99.90
20714;DHT22;10518;50.742;4.226;2022-09-09T11:23:24;19.80;99.90
20714;DHT22;10518;50.742;4.226;2022-09-09T11:25:57;19.80;99.90
20714;DHT22;10518;50.742;4.226;2022-09-09T11:28:40;19.80;99.90
20714;DHT22;10518;50.742;4.226;2022-09-09T11:42:21;19.80;99.90
20714;DHT22;10518;50.742;4.226;2022-09-09T11:44:47;19.80;99.90
20714;DHT22;10518;50.742;4.226;2022-09-09T11:47:50;19.50;99.90
20714;DHT22;10518;50.742;4.226;2022-09-09T11:52:42;19.60;99.90
20714;DHT22;10518;50.742;4.226;2022-09-09T11:55:27;19.70;99.90
20714;DHT22;10518;50.742;4.226;2022-09-09T11:58:00;19.80;99.90
20714;DHT22;10518;50.742;4.226;2022-09-09T12:00:38;19.80;99.90
20714;DHT22;10518;50.742;4.226;2022-09-09T12:03:06;19.90;99.90
20714;DHT22;10518;50.742;4.226;2022-09-09T12:05:42;20.00;99.90
20714;DHT22;10518;50.742;4.226;2022-09-09T12:08:15;20.10;99.90
20714;DHT22;10518;50.742;4.226;2022-09-09T12:10:54;19.90;99.90
20714;DHT22;10518;50.742;4.226;2022-09-09T12:13:23;20.20;99.90
20714;DHT22;10518;50.742;4.226;2022-09-09T12:15:51;19.80;99.90
20714;DHT22;10518;50.742;4.226;2022-09-09T12:18:38;19.90;99.90
20714;DHT22;10518;50.742;4.226;2022-09-09T12:21:33;20.00;99.90
20714;DHT22;10518;50.742;4.226;2022-09-09T12:24:11;20.20;99.90
20714;DHT22;10518;50.742;4.226;2022-09-09T12:26:43;20.40;99.90
20714;DHT22;10518;50.742;4.226;2022-09-09T12:29:26;20.50;99.90
20714;DHT22;10518;50.742;4.226;2022-09-09T12:32:02;20.70;99.90
20714;DHT22;10518;50.742;4.226;2022-09-09T12:37:33;20.90;99.90
20714;DHT22;10518;50.742;4.226;2022-09-09T12:40:02;20.90;99.90
20714;DHT22;10518;50.742;4.226;2022-09-09T12:42:29;20.90;99.90
20714;DHT22;10518;50.742;4.226;2022-09-09T12:44:57;21.10;99.90
20714;DHT22;10518;50.742;4.226;2022-09-09T12:48:19;21.20;99.90
20714;DHT22;10518;50.742;4.226;2022-09-09T12:50:37;21.20;99.90
20714;DHT22;10518;50.742;4.226;2022-09-09T12:53:23;21.00;99.90
20714;DHT22;10518;50.742;4.226;2022-09-09T12:55:59;20.90;99.90
20714;DHT22;10518;50.742;4.226;2022-09-09T12:58:26;20.70;99.90
20714;DHT22;10518;50.742;4.226;2022-09-09T13:00:55;20.80;99.90
20714;DHT22;10518;50.742;4.226;2022-09-09T13:03:21;20.70;99.90
20714;DHT22;10518;50.742;4.226;2022-09-09T13:05:50;20.90;99.90
20714;DHT22;10518;50.742;4.226;2022-09-09T13:08:16;20.90;99.90
20714;DHT22;10518;50.742;4.226;2022-09-09T13:11:03;21.10;99.90
20714;DHT22;10518;50.742;4.226;2022-09-09T13:16:00;21.10;99.90
20714;DHT22;10518;50.742;4.226;2022-09-09T13:18:29;21.10;99.90
20714;DHT22;10518;50.742;4.226;2022-09-09T13:20:56;21.10;99.90
20714;DHT22;10518;50.742;4.226;2022-09-09T13:23:26;21.20;99.90
20714;DHT22;10518;50.742;4.226;2022-09-09T13:25:57;21.20;99.90
20714;DHT22;10518;50.742;4.226;2022-09-09T13:28:26;21.40;99.90
20714;DHT22;10518;50.742;4.226;2022-09-09T13:31:00;21.70;99.90
20714;DHT22;10518;50.742;4.226;2022-09-09T13:33:36;21.90;99.90
20714;DHT22;10518;50.742;4.226;2022-09-09T13:36:08;21.90;99.90
20714;DHT22;10518;50.742;4.226;2022-09-09T13:38:40;22.10;99.90
20714;DHT22;10518;50.742;4.226;2022-09-09T13:41:34;22.20;99.90
20714;DHT22;10518;50.742;4.226;2022-09-09T13:44:01;22.30;99.90
20714;DHT22;10518;50.742;4.226;2022-09-09T13:46:33;22.20;99.90
20714;DHT22;10518;50.742;4.226;2022-09-09T13:54:00;22.30;99.90
20714;DHT22;10518;50.742;4.226;2022-09-09T13:56:26;22.30;99.90
20714;DHT22;10518;50.742;4.226;2022-09-09T13:58:52;22.40;99.90
20714;DHT22;10518;50.742;4.226;2022-09-09T14:01:17;22.20;99.90
20714;DHT22;10518;50.742;4.226;2022-09-09T14:03:43;22.00;99.90
20714;DHT22;10518;50.742;4.226;2022-09-09T14:06:10;21.80;99.90
20714;DHT22;10518;50.742;4.226;2022-09-09T14:08:36;21.70;99.90
20714;DHT22;10518;50.742;4.226;2022-09-09T14:11:03;21.80;99.90
20714;DHT22;10518;50.742;4.226;2022-09-09T14:13:29;21.60;99.90
20714;DHT22;10518;50.742;4.226;2022-09-09T14:15:54;21.60;99.90
20714;DHT22;10518;50.742;4.226;2022-09-09T14:18:20;21.60;99.90
20714;DHT22;10518;50.742;4.226;2022-09-09T14:20:47;21.60;99.90
20714;DHT22;10518;50.742;4.226;2022-09-09T14:23:13;21.50;99.90
20714;DHT22;10518;50.742;4.226;2022-09-09T14:25:40;21.70;99.90
20714;DHT22;10518;50.742;4.226;2022-09-09T14:28:11;21.90;99.90
20714;DHT22;10518;50.742;4.226;2022-09-09T14:30:39;22.30;99.90
20714;DHT22;10518;50.742;4.226;2022-09-09T14:33:05;22.30;99.90
20714;DHT22;10518;50.742;4.226;2022-09-09T14:35:31;22.50;99.90
20714;DHT22;10518;50.742;4.226;2022-09-09T14:37:59;22.30;99.90
20714;DHT22;10518;50.742;4.226;2022-09-09T14:40:26;22.20;99.90
20714;DHT22;10518;50.742;4.226;2022-09-09T14:42:52;22.00;99.90
20714;DHT22;10518;50.742;4.226;2022-09-09T14:45:18;22.10;99.90
20714;DHT22;10518;50.742;4.226;2022-09-09T14:47:44;22.10;99.90
20714;DHT22;10518;50.742;4.226;2022-09-09T14:50:10;22.20;99.90
20714;DHT22;10518;50.742;4.226;2022-09-09T14:52:37;22.10;99.90
20714;DHT22;10518;50.742;4.226;2022-09-09T14:55:03;22.20;99.90
20714;DHT22;10518;50.742;4.226;2022-09-09T14:57:29;22.10;99.90
20714;DHT22;10518;50.742;4.226;2022-09-09T14:59:55;22.10;99.90
20714;DHT22;10518;50.742;4.226;2022-09-09T15:02:22;21.90;99.90
20714;DHT22;10518;50.742;4.226;2022-09-09T15:04:47;21.90;99.90
20714;DHT22;10518;50.742;4.226;2022-09-09T15:07:15;21.70;99.90
20714;DHT22;10518;50.742;4.226;2022-09-09T15:09:41;21.60;99.90
20714;DHT22;10518;50.742;4.226;2022-09-09T15:12:07;21.60;99.90
20714;DHT22;10518;50.742;4.226;2022-09-09T15:14:33;21.50;99.90
20714;DHT22;10518;50.742;4.226;2022-09-09T15:16:59;21.50;99.90
20714;DHT22;10518;50.742;4.226;2022-09-09T15:19:24;21.40;99.90
20714;DHT22;10518;50.742;4.226;2022-09-09T15:21:50;21.20;99.90
20714;DHT22;10518;50.742;4.226;2022-09-09T15:24:16;21.20;99.90
20714;DHT22;10518;50.742;4.226;2022-09-09T15:26:42;21.20;99.90
20714;DHT22;10518;50.742;4.226;2022-09-09T15:29:08;21.20;99.90
20714;DHT22;10518;50.742;4.226;2022-09-09T15:31:35;21.40;99.90
20714;DHT22;10518;50.742;4.226;2022-09-09T15:34:02;21.30;99.90
20714;DHT22;10518;50.742;4.226;2022-09-09T15:36:32;21.30;99.90
20714;DHT22;10518;50.742;4.226;2022-09-09T15:39:02;21.40;99.90
20714;DHT22;10518;50.742;4.226;2022-09-09T15:41:29;21.40;99.90
20714;DHT22;10518;50.742;4.226;2022-09-09T15:43:57;21.30;99.90
20714;DHT22;10518;50.742;4.226;2022-09-09T15:46:37;21.40;99.90
20714;DHT22;10518;50.742;4.226;2022-09-09T15:49:10;21.30;99.90
20714;DHT22;10518;50.742;4.226;2022-09-09T15:51:37;21.40;99.90
20714;DHT22;10518;50.742;4.226;2022-09-09T15:54:03;21.70;99.90
20714;DHT22;10518;50.742;4.226;2022-09-09T15:56:30;21.90;99.90
20714;DHT22;10518;50.742;4.226;2022-09-09T15:58:57;21.90;99.90
20714;DHT22;10518;50.742;4.226;2022-09-09T16:01:23;21.80;99.90
20714;DHT22;10518;50.742;4.226;2022-09-09T16:03:49;21.70;99.90
20714;DHT22;10518;50.742;4.226;2022-09-09T16:06:18;21.70;99.90
20714;DHT22;10518;50.742;4.226;2022-09-09T16:08:45;21.60;99.90
20714;DHT22;10518;50.742;4.226;2022-09-09T16:11:19;21.80;99.90
20714;DHT22;10518;50.742;4.226;2022-09-09T16:13:47;21.90;99.90
20714;DHT22;10518;50.742;4.226;2022-09-09T16:16:15;21.70;99.90
20714;DHT22;10518;50.742;4.226;2022-09-09T16:18:43;21.70;99.90
20714;DHT22;10518;50.742;4.226;2022-09-09T16:21:14;21.90;99.90
20714;DHT22;10518;50.742;4.226;2022-09-09T16:23:40;21.60;99.90
20714;DHT22;10518;50.742;4.226;2022-09-09T16:26:06;21.70;99.90
20714;DHT22;10518;50.742;4.226;2022-09-09T16:28:32;21.60;99.90
20714;DHT22;10518;50.742;4.226;2022-09-09T16:30:57;21.20;99.90
20714;DHT22;10518;50.742;4.226;2022-09-09T16:33:26;20.90;99.90
20714;DHT22;10518;50.742;4.226;2022-09-09T16:35:52;21.00;99.90
20714;DHT22;10518;50.742;4.226;2022-09-09T16:38:17;21.30;99.90
20714;DHT22;10518;50.742;4.226;2022-09-09T16:40:43;21.20;99.90
20714;DHT22;10518;50.742;4.226;2022-09-09T16:43:09;21.10;99.90
20714;DHT22;10518;50.742;4.226;2022-09-09T16:45:45;20.90;99.90
20714;DHT22;10518;50.742;4.226;2022-09-09T16:48:11;20.50;99.90
20714;DHT22;10518;50.742;4.226;2022-09-09T16:50:37;20.50;99.90
20714;DHT22;10518;50.742;4.226;2022-09-09T16:53:03;20.50;99.90
20714;DHT22;10518;50.742;4.226;2022-09-09T16:55:31;20.70;99.90
20714;DHT22;10518;50.742;4.226;2022-09-09T16:57:57;20.80;99.90
20714;DHT22;10518;50.742;4.226;2022-09-09T17:00:23;20.90;99.90
20714;DHT22;10518;50.742;4.226;2022-09-09T17:02:48;20.80;99.90
20714;DHT22;10518;50.742;4.226;2022-09-09T17:05:14;20.70;99.90
20714;DHT22;10518;50.742;4.226;2022-09-09T17:07:40;20.60;99.90
20714;DHT22;10518;50.742;4.226;2022-09-09T17:10:06;20.30;99.90
20714;DHT22;10518;50.742;4.226;2022-09-09T17:12:32;20.20;99.90
20714;DHT22;10518;50.742;4.226;2022-09-09T17:14:58;20.10;99.90
20714;DHT22;10518;50.742;4.226;2022-09-09T17:17:25;20.00;99.90
20714;DHT22;10518;50.742;4.226;2022-09-09T17:19:52;19.80;99.90
20714;DHT22;10518;50.742;4.226;2022-09-09T17:22:17;19.80;99.90
20714;DHT22;10518;50.742;4.226;2022-09-09T17:24:44;19.60;99.90
20714;DHT22;10518;50.742;4.226;2022-09-09T17:27:09;19.70;99.90
20714;DHT22;10518;50.742;4.226;2022-09-09T17:29:35;19.80;99.90
20714;DHT22;10518;50.742;4.226;2022-09-09T17:32:04;19.70;99.90
20714;DHT22;10518;50.742;4.226;2022-09-09T17:34:34;19.70;99.90
20714;DHT22;10518;50.742;4.226;2022-09-09T17:36:59;19.60;99.90
20714;DHT22;10518;50.742;4.226;2022-09-09T17:39:25;19.60;99.90
20714;DHT22;10518;50.742;4.226;2022-09-09T17:44:18;19.40;99.90
20714;DHT22;10518;50.742;4.226;2022-09-09T17:46:44;19.30;99.90
20714;DHT22;10518;50.742;4.226;2022-09-09T17:49:15;19.30;99.90
20714;DHT22;10518;50.742;4.226;2022-09-09T17:51:43;19.30;99.90
20714;DHT22;10518;50.742;4.226;2022-09-09T17:54:15;19.20;99.90
20714;DHT22;10518;50.742;4.226;2022-09-09T17:56:41;19.20;99.90
20714;DHT22;10518;50.742;4.226;2022-09-09T17:59:08;19.10;99.90
20714;DHT22;10518;50.742;4.226;2022-09-09T18:01:37;19.10;99.90